Time;durP1;ratioP1;P1;durP2;ratioP2;P2;SDS_P1;SDS_P2;PMS_P1;PMS_P2;Temp;Humidity;BMP_temperature;BMP_pressure;BME280_temperature;BME280_humidity;BME280_pressure;Samples;Min_cycle;Max_cycle;Signal;HPM_P1;HPM_P2
2023/06/05 00:02:03;;;;;;;2.67;1.80;;;;;;;;;;5053007;28;20258;-77
2023/06/05 00:04:28;;;;;;;2.45;1.70;;;;;;;;;;5035044;28;20261;-77
2023/06/05 00:06:54;;;;;;;4.20;1.67;;;;;;;;;;5053305;28;20526;-78
2023/06/05 00:09:20;;;;;;;2.53;1.48;;;;;;;;;;5053490;28;20375;-76
2023/06/05 00:11:45;;;;;;;1.95;1.45;;;;;;;;;;5052734;28;20017;-76
2023/06/05 00:14:10;;;;;;;4.78;1.58;;;;;;;;;;5053468;28;20035;-77
2023/06/05 00:16:36;;;;;;;8.73;1.67;;;;;;;;;;5053213;28;20027;-74
2023/06/05 00:19:02;;;;;;;3.33;1.60;;;;;;;;;;5052835;28;20100;-74
2023/06/05 00:21:28;;;;;;;4.75;1.60;;;;;;;;;;5052740;28;20258;-75
2023/06/05 00:23:54;;;;;;;4.70;2.00;;;;;;;;;;5052717;28;20051;-75
2023/06/05 00:26:19;;;;;;;4.65;1.60;;;;;;;;;;5052941;28;20512;-75
2023/06/05 00:28:45;;;;;;;6.35;1.65;;;;;;;;;;5053548;28;20025;-77
2023/06/05 00:31:12;;;;;;;3.25;1.60;;;;;;;;;;5052735;28;20113;-75
2023/06/05 00:33:38;;;;;;;3.35;1.60;;;;;;;;;;5052224;28;20033;-78
2023/06/05 00:36:03;;;;;;;3.80;1.77;;;;;;;;;;5053420;28;20032;-76
2023/06/05 00:38:29;;;;;;;2.15;1.42;;;;;;;;;;5052612;28;20025;-76
2023/06/05 00:40:54;;;;;;;4.13;1.50;;;;;;;;;;5052799;28;20380;-75
2023/06/05 00:43:19;;;;;;;5.50;1.63;;;;;;;;;;5052715;28;20021;-74
2023/06/05 00:45:45;;;;;;;2.58;1.50;;;;;;;;;;5052467;28;20388;-75
2023/06/05 00:48:10;;;;;;;2.30;1.58;;;;;;;;;;5052665;28;20472;-76
2023/06/05 00:50:36;;;;;;;2.10;1.45;;;;;;;;;;5052770;28;20036;-74
2023/06/05 00:53:03;;;;;;;2.63;1.70;;;;;;;;;;5038726;28;20046;-76
2023/06/05 00:55:28;;;;;;;2.65;1.60;;;;;;;;;;5057727;28;20028;-79
2023/06/05 00:57:54;;;;;;;5.03;1.67;;;;;;;;;;5060172;28;20052;-78
2023/06/05 01:00:21;;;;;;;2.58;1.50;;;;;;;;;;5041302;28;20534;-78
2023/06/05 01:02:46;;;;;;;1.98;1.50;;;;;;;;;;5059828;28;20029;-78
2023/06/05 01:05:12;;;;;;;3.40;1.60;;;;;;;;;;5059800;28;20128;-79
2023/06/05 01:07:39;;;;;;;2.97;1.67;;;;;;;;;;5060135;28;20562;-78
2023/06/05 01:10:06;;;;;;;2.97;1.58;;;;;;;;;;5041528;28;20025;-79
2023/06/05 01:12:46;;;;;;;2.70;1.60;;;;;;;;;;5060288;28;20025;-78
2023/06/05 01:15:12;;;;;;;2.90;1.63;;;;;;;;;;5059444;28;20108;-78
2023/06/05 01:17:38;;;;;;;1.88;1.50;;;;;;;;;;5059166;28;20114;-78
2023/06/05 01:20:07;;;;;;;7.43;1.48;;;;;;;;;;5058729;28;20017;-78
2023/06/05 01:22:34;;;;;;;2.42;1.58;;;;;;;;;;5040602;28;20025;-79
2023/06/05 01:25:01;;;;;;;2.17;1.42;;;;;;;;;;5040612;28;20029;-78
2023/06/05 01:27:53;;;;;;;2.30;1.55;;;;;;;;;;5040299;28;20033;-78
2023/06/05 01:30:24;;;;;;;7.18;1.38;;;;;;;;;;5058759;28;20060;-78
2023/06/05 01:32:54;;;;;;;1.95;1.40;;;;;;;;;;5040880;28;20033;-78
2023/06/05 01:35:27;;;;;;;4.40;1.52;;;;;;;;;;5058756;28;20025;-78
2023/06/05 01:37:54;;;;;;;3.92;1.60;;;;;;;;;;5058394;28;20025;-77
2023/06/05 01:40:22;;;;;;;3.85;1.67;;;;;;;;;;5058554;28;20012;-78
2023/06/05 01:42:48;;;;;;;2.53;1.45;;;;;;;;;;5057533;28;20021;-77
2023/06/05 01:45:15;;;;;;;3.88;1.50;;;;;;;;;;5059573;28;20043;-78
2023/06/05 01:47:41;;;;;;;3.35;1.35;;;;;;;;;;5058663;28;20028;-78
2023/06/05 01:50:07;;;;;;;3.30;1.60;;;;;;;;;;5058585;28;20021;-78
2023/06/05 01:52:34;;;;;;;2.58;1.48;;;;;;;;;;5059400;28;20024;-79
2023/06/05 01:54:59;;;;;;;3.80;1.50;;;;;;;;;;5041577;28;20067;-78
2023/06/05 01:57:27;;;;;;;1.75;1.30;;;;;;;;;;5058054;28;20017;-78
2023/06/05 01:59:53;;;;;;;2.65;1.45;;;;;;;;;;5058156;28;20543;-78
2023/06/05 02:02:19;;;;;;;4.45;1.90;;;;;;;;;;5039484;28;20017;-78
2023/06/05 02:04:47;;;;;;;3.45;1.60;;;;;;;;;;5056729;28;20036;-79
2023/06/05 02:07:12;;;;;;;2.03;1.38;;;;;;;;;;5059222;28;20025;-79
2023/06/05 02:09:38;;;;;;;2.70;1.58;;;;;;;;;;5057688;28;20029;-79
2023/06/05 02:12:05;;;;;;;2.25;1.60;;;;;;;;;;5057592;28;20025;-78
2023/06/05 02:14:37;;;;;;;3.08;1.60;;;;;;;;;;5057342;28;20029;-79
2023/06/05 02:17:06;;;;;;;3.60;1.40;;;;;;;;;;5056156;28;20056;-78
2023/06/05 02:19:33;;;;;;;3.22;1.73;;;;;;;;;;5039452;28;20035;-78
2023/06/05 02:21:59;;;;;;;3.75;1.40;;;;;;;;;;5039620;28;20028;-79
2023/06/05 02:24:25;;;;;;;1.80;1.40;;;;;;;;;;5056549;28;20458;-77
2023/06/05 02:26:51;;;;;;;1.63;1.33;;;;;;;;;;5038271;28;20021;-75
2023/06/05 02:29:16;;;;;;;2.10;1.48;;;;;;;;;;5056557;28;20095;-79
2023/06/05 02:31:41;;;;;;;3.88;1.75;;;;;;;;;;5056888;28;20040;-78
2023/06/05 02:34:07;;;;;;;2.27;1.60;;;;;;;;;;5058589;28;20025;-78
2023/06/05 02:36:32;;;;;;;5.05;1.95;;;;;;;;;;5039844;28;20277;-79
2023/06/05 02:38:59;;;;;;;2.78;1.40;;;;;;;;;;5039626;28;20017;-79
2023/06/05 02:41:26;;;;;;;3.45;1.58;;;;;;;;;;5056488;28;20021;-78
2023/06/05 02:43:52;;;;;;;6.45;1.65;;;;;;;;;;5038940;28;20017;-78
2023/06/05 02:46:17;;;;;;;1.83;1.40;;;;;;;;;;5039294;28;20036;-79
2023/06/05 02:48:43;;;;;;;2.42;1.33;;;;;;;;;;5038661;28;20491;-78
2023/06/05 02:51:10;;;;;;;3.42;1.60;;;;;;;;;;5056672;28;20036;-78
2023/06/05 02:53:35;;;;;;;2.17;1.52;;;;;;;;;;5056965;28;20033;-79
2023/06/05 02:56:01;;;;;;;3.20;1.65;;;;;;;;;;5056517;28;20021;-78
2023/06/05 02:58:28;;;;;;;4.18;1.63;;;;;;;;;;5039065;28;20025;-79
2023/06/05 03:00:55;;;;;;;3.90;1.63;;;;;;;;;;5039111;28;20094;-78
2023/06/05 03:03:25;;;;;;;2.42;1.70;;;;;;;;;;5039267;28;20048;-78
2023/06/05 03:05:51;;;;;;;3.92;1.80;;;;;;;;;;5057250;28;20021;-79
2023/06/05 03:08:16;;;;;;;4.78;1.70;;;;;;;;;;5038952;28;20060;-78
2023/06/05 03:10:42;;;;;;;2.45;1.50;;;;;;;;;;5038953;28;20025;-79
2023/06/05 03:13:07;;;;;;;3.50;1.45;;;;;;;;;;5056700;28;20025;-78
2023/06/05 03:15:32;;;;;;;2.47;1.70;;;;;;;;;;5056377;28;20060;-78
2023/06/05 03:17:57;;;;;;;3.10;1.63;;;;;;;;;;5057036;28;20320;-79
2023/06/05 03:20:22;;;;;;;3.50;1.70;;;;;;;;;;5056792;28;20270;-78
2023/06/05 03:22:48;;;;;;;4.60;1.50;;;;;;;;;;5055866;28;20320;-78
2023/06/05 03:25:13;;;;;;;4.50;1.70;;;;;;;;;;5035986;28;20274;-77
2023/06/05 03:27:38;;;;;;;7.22;1.63;;;;;;;;;;5054260;28;20269;-78
2023/06/05 03:30:04;;;;;;;3.23;1.50;;;;;;;;;;5053838;28;20071;-77
2023/06/05 03:32:30;;;;;;;3.65;1.75;;;;;;;;;;5053620;28;20261;-77
2023/06/05 03:34:55;;;;;;;2.17;1.48;;;;;;;;;;5053663;28;20107;-77
2023/06/05 03:37:21;;;;;;;2.30;1.50;;;;;;;;;;5053777;28;20056;-77
2023/06/05 03:39:46;;;;;;;2.13;1.60;;;;;;;;;;5035830;28;20285;-78
2023/06/05 03:42:11;;;;;;;4.38;1.65;;;;;;;;;;5054195;28;20032;-76
2023/06/05 03:44:37;;;;;;;3.20;1.47;;;;;;;;;;5054653;28;20107;-77
2023/06/05 03:47:03;;;;;;;2.63;1.50;;;;;;;;;;5055873;28;20297;-78
2023/06/05 03:49:28;;;;;;;3.08;1.48;;;;;;;;;;5055416;28;20050;-77
2023/06/05 03:52:00;;;;;;;2.05;1.48;;;;;;;;;;5053544;28;20025;-77
2023/06/05 03:54:32;;;;;;;2.50;1.70;;;;;;;;;;5036081;28;20029;-77
2023/06/05 03:57:00;;;;;;;2.13;1.52;;;;;;;;;;5053795;28;20029;-77
2023/06/05 03:59:27;;;;;;;2.45;1.60;;;;;;;;;;5053597;28;20483;-78
2023/06/05 04:01:53;;;;;;;3.60;1.58;;;;;;;;;;5054260;28;20075;-77
2023/06/05 04:04:20;;;;;;;4.43;1.50;;;;;;;;;;5036146;28;20031;-77
2023/06/05 04:06:45;;;;;;;4.00;1.80;;;;;;;;;;5054794;28;20033;-77
2023/06/05 04:09:13;;;;;;;3.08;2.05;;;;;;;;;;5054410;28;20579;-77
2023/06/05 04:11:41;;;;;;;5.82;1.90;;;;;;;;;;5035980;28;20084;-77
2023/06/05 04:14:08;;;;;;;2.28;1.40;;;;;;;;;;5053992;28;20056;-77
2023/06/05 04:16:34;;;;;;;2.45;1.52;;;;;;;;;;5054187;28;20035;-77
2023/06/05 04:19:00;;;;;;;3.67;1.75;;;;;;;;;;5054229;28;20037;-77
2023/06/05 04:21:25;;;;;;;2.15;1.48;;;;;;;;;;5053891;28;20024;-77
2023/06/05 04:23:51;;;;;;;4.05;1.98;;;;;;;;;;5035038;28;20021;-77
2023/06/05 04:26:17;;;;;;;4.35;1.70;;;;;;;;;;5053306;28;20033;-78
2023/06/05 04:28:43;;;;;;;2.67;1.70;;;;;;;;;;5055853;28;20021;-77
2023/06/05 04:31:09;;;;;;;1.70;1.50;;;;;;;;;;5036789;28;20066;-79
2023/06/05 04:33:34;;;;;;;2.30;1.65;;;;;;;;;;5054578;28;20033;-78
2023/06/05 04:35:59;;;;;;;2.40;1.67;;;;;;;;;;5053607;28;20025;-77
2023/06/05 04:38:25;;;;;;;4.17;2.07;;;;;;;;;;5053973;28;20336;-78
2023/06/05 04:40:50;;;;;;;2.17;1.75;;;;;;;;;;5053535;28;20246;-77
2023/06/05 04:43:16;;;;;;;4.32;1.85;;;;;;;;;;5053748;28;20021;-78
2023/06/05 04:45:41;;;;;;;3.33;1.70;;;;;;;;;;5036270;28;20061;-77
2023/06/05 04:48:08;;;;;;;4.35;1.60;;;;;;;;;;5052751;28;20021;-77
2023/06/05 04:50:35;;;;;;;4.38;1.80;;;;;;;;;;5052924;28;20021;-79
2023/06/05 04:53:00;;;;;;;3.47;1.90;;;;;;;;;;5035030;28;20491;-76
2023/06/05 04:55:26;;;;;;;7.60;1.70;;;;;;;;;;5053608;28;20062;-77
2023/06/05 04:57:51;;;;;;;6.73;1.60;;;;;;;;;;5053128;28;20399;-76
2023/06/05 05:00:17;;;;;;;3.58;1.50;;;;;;;;;;5054319;28;20660;-78
2023/06/05 05:02:42;;;;;;;3.33;1.55;;;;;;;;;;5054189;28;20035;-78
2023/06/05 05:05:08;;;;;;;3.40;2.00;;;;;;;;;;5052327;28;20053;-77
2023/06/05 05:07:34;;;;;;;4.97;2.45;;;;;;;;;;5052883;28;20404;-77
2023/06/05 05:09:59;;;;;;;3.20;1.85;;;;;;;;;;5053156;28;20024;-77
2023/06/05 05:12:24;;;;;;;3.08;1.75;;;;;;;;;;5053791;28;20036;-78
2023/06/05 05:14:50;;;;;;;11.17;1.63;;;;;;;;;;5054631;28;20017;-77
2023/06/05 05:17:19;;;;;;;4.77;1.87;;;;;;;;;;5053457;28;20261;-77
2023/06/05 05:19:44;;;;;;;3.28;1.70;;;;;;;;;;5053881;28;20633;-79
2023/06/05 05:22:09;;;;;;;7.20;1.80;;;;;;;;;;5053026;28;20021;-77
2023/06/05 05:24:34;;;;;;;2.23;1.67;;;;;;;;;;5052203;28;20282;-77
2023/06/05 05:27:00;;;;;;;4.90;1.80;;;;;;;;;;5052159;28;20268;-78
2023/06/05 05:29:26;;;;;;;4.57;2.10;;;;;;;;;;5052222;28;20025;-79
2023/06/05 05:31:51;;;;;;;6.28;1.98;;;;;;;;;;5035258;28;20107;-77
2023/06/05 05:34:17;;;;;;;2.97;1.80;;;;;;;;;;5035258;28;20033;-79
2023/06/05 05:36:42;;;;;;;5.13;2.05;;;;;;;;;;5054527;28;20028;-77
2023/06/05 05:39:07;;;;;;;6.17;1.93;;;;;;;;;;5055726;28;20062;-77
2023/06/05 05:41:33;;;;;;;6.85;2.20;;;;;;;;;;5037464;28;20340;-77
2023/06/05 05:43:58;;;;;;;8.50;2.10;;;;;;;;;;5055383;28;20108;-76
2023/06/05 05:46:23;;;;;;;4.43;2.37;;;;;;;;;;5055264;28;20392;-77
2023/06/05 05:48:49;;;;;;;3.43;1.73;;;;;;;;;;5055318;28;20691;-78
2023/06/05 05:51:14;;;;;;;2.95;1.92;;;;;;;;;;5056890;28;20788;-78
2023/06/05 05:53:40;;;;;;;2.75;1.80;;;;;;;;;;5056907;28;20025;-78
2023/06/05 05:56:05;;;;;;;6.15;1.90;;;;;;;;;;5056563;28;20044;-78
2023/06/05 05:58:31;;;;;;;3.28;1.65;;;;;;;;;;5038769;28;20116;-78
2023/06/05 06:00:57;;;;;;;5.05;1.75;;;;;;;;;;5038835;28;20079;-78
2023/06/05 06:03:23;;;;;;;2.78;1.55;;;;;;;;;;5055863;28;20055;-74
2023/06/05 06:05:48;;;;;;;2.92;1.65;;;;;;;;;;5056576;28;20029;-78
2023/06/05 06:08:14;;;;;;;4.63;1.92;;;;;;;;;;5056085;28;20112;-77
2023/06/05 06:10:40;;;;;;;6.63;1.83;;;;;;;;;;5055924;28;20020;-78
2023/06/05 06:13:06;;;;;;;3.35;1.88;;;;;;;;;;5038110;28;20029;-77
2023/06/05 06:15:32;;;;;;;6.53;1.85;;;;;;;;;;5055697;28;20036;-77
2023/06/05 06:17:59;;;;;;;4.35;1.88;;;;;;;;;;5055670;28;20474;-78
2023/06/05 06:20:25;;;;;;;6.00;1.88;;;;;;;;;;5055654;28;20028;-78
2023/06/05 06:22:50;;;;;;;5.50;1.90;;;;;;;;;;5056229;28;20036;-78
2023/06/05 06:25:17;;;;;;;9.50;1.90;;;;;;;;;;5056327;28;20403;-78
2023/06/05 06:27:45;;;;;;;9.18;1.77;;;;;;;;;;5056035;28;20391;-78
2023/06/05 06:30:11;;;;;;;3.67;1.80;;;;;;;;;;5037853;28;20533;-78
2023/06/05 06:32:36;;;;;;;6.18;2.03;;;;;;;;;;5055772;28;20029;-78
2023/06/05 06:35:01;;;;;;;7.55;1.90;;;;;;;;;;5056203;28;20020;-78
2023/06/05 06:37:28;;;;;;;3.08;1.92;;;;;;;;;;5055449;28;20024;-78
2023/06/05 06:39:53;;;;;;;2.85;1.88;;;;;;;;;;5036964;28;20033;-77
2023/06/05 06:42:18;;;;;;;3.78;2.10;;;;;;;;;;5054868;28;20063;-80
2023/06/05 06:44:43;;;;;;;5.18;2.15;;;;;;;;;;5055211;28;20028;-77
2023/06/05 06:47:09;;;;;;;6.97;1.80;;;;;;;;;;5055234;28;20048;-77
2023/06/05 06:49:39;;;;;;;4.93;1.95;;;;;;;;;;5054613;28;20663;-77
2023/06/05 06:52:04;;;;;;;6.03;1.88;;;;;;;;;;5037088;28;20021;-77
2023/06/05 06:54:29;;;;;;;5.32;1.90;;;;;;;;;;5055232;28;20025;-77
2023/06/05 06:56:55;;;;;;;7.45;2.10;;;;;;;;;;5054860;28;20079;-77
2023/06/05 06:59:21;;;;;;;3.05;2.03;;;;;;;;;;5054573;28;20123;-77
2023/06/05 07:02:07;;;;;;;4.13;1.80;;;;;;;;;;5036492;28;20071;-76
2023/06/05 07:04:32;;;;;;;5.68;2.00;;;;;;;;;;5053882;28;20132;-77
2023/06/05 07:06:57;;;;;;;3.70;1.90;;;;;;;;;;5054312;28;20036;-76
2023/06/05 07:09:24;;;;;;;4.15;2.03;;;;;;;;;;5054574;28;20610;-76
2023/06/05 07:11:49;;;;;;;5.10;1.90;;;;;;;;;;5054933;28;20027;-77
2023/06/05 07:14:14;;;;;;;4.85;1.80;;;;;;;;;;5036008;28;20465;-77
2023/06/05 07:16:40;;;;;;;5.23;1.73;;;;;;;;;;5054007;28;20059;-78
2023/06/05 07:19:05;;;;;;;5.27;2.03;;;;;;;;;;5053593;28;20249;-77
2023/06/05 07:21:34;;;;;;;8.03;2.03;;;;;;;;;;5053727;28;20250;-77
2023/06/05 07:23:59;;;;;;;5.68;1.90;;;;;;;;;;5035535;28;20320;-77
2023/06/05 07:26:25;;;;;;;4.72;1.77;;;;;;;;;;5053477;28;20024;-77
2023/06/05 07:28:50;;;;;;;3.00;1.80;;;;;;;;;;5053529;28;20116;-77
2023/06/05 07:31:17;;;;;;;5.00;2.10;;;;;;;;;;5053561;28;20321;-77
2023/06/05 07:33:42;;;;;;;4.57;1.90;;;;;;;;;;5053885;28;20020;-77
2023/06/05 07:36:07;;;;;;;3.33;1.87;;;;;;;;;;5036491;28;20032;-77
2023/06/05 07:38:33;;;;;;;4.45;1.77;;;;;;;;;;5054653;28;20262;-77
2023/06/05 07:40:58;;;;;;;2.95;1.83;;;;;;;;;;5056855;28;20021;-78
2023/06/05 07:43:26;;;;;;;3.65;2.10;;;;;;;;;;5056850;28;20017;-77
2023/06/05 07:45:51;;;;;;;7.03;2.00;;;;;;;;;;5056939;28;20480;-77
2023/06/05 07:48:16;;;;;;;4.03;1.90;;;;;;;;;;5038863;28;20049;-77
2023/06/05 07:50:42;;;;;;;6.37;2.03;;;;;;;;;;5056868;28;20752;-77
2023/06/05 07:53:07;;;;;;;5.47;2.10;;;;;;;;;;5055722;28;20262;-77
2023/06/05 07:55:32;;;;;;;4.77;2.03;;;;;;;;;;5055908;28;20308;-77
2023/06/05 07:57:59;;;;;;;7.63;1.90;;;;;;;;;;5058613;28;20262;-78
2023/06/05 08:00:26;;;;;;;10.68;2.10;;;;;;;;;;5054708;28;20387;-78
2023/06/05 08:02:51;;;;;;;5.70;1.92;;;;;;;;;;5036987;28;20048;-77
2023/06/05 08:05:17;;;;;;;10.67;2.30;;;;;;;;;;5053302;28;20524;-77
2023/06/05 08:07:42;;;;;;;4.55;2.20;;;;;;;;;;5054204;28;20748;-78
2023/06/05 08:10:08;;;;;;;8.90;2.00;;;;;;;;;;5052896;28;20107;-77
2023/06/05 08:12:33;;;;;;;7.03;2.10;;;;;;;;;;5053275;28;20297;-77
2023/06/05 08:14:59;;;;;;;2.88;1.85;;;;;;;;;;5052779;28;20033;-77
2023/06/05 08:17:24;;;;;;;7.80;2.33;;;;;;;;;;5052786;28;20053;-76
2023/06/05 08:19:49;;;;;;;5.40;1.90;;;;;;;;;;5053781;28;20075;-77
2023/06/05 08:22:15;;;;;;;3.38;1.90;;;;;;;;;;5053800;28;20033;-77
2023/06/05 08:24:40;;;;;;;7.07;2.00;;;;;;;;;;5053951;28;20488;-78
2023/06/05 08:27:07;;;;;;;4.15;1.80;;;;;;;;;;5054416;28;20033;-78
2023/06/05 08:29:36;;;;;;;6.32;2.13;;;;;;;;;;5054491;28;20029;-77
2023/06/05 08:32:02;;;;;;;5.97;2.13;;;;;;;;;;5052716;28;20025;-78
2023/06/05 08:34:27;;;;;;;5.72;1.75;;;;;;;;;;5052469;28;20445;-77
2023/06/05 08:36:52;;;;;;;7.00;1.77;;;;;;;;;;5052847;28;20059;-77
2023/06/05 08:39:18;;;;;;;4.30;1.80;;;;;;;;;;5052668;28;20266;-77
2023/06/05 08:41:43;;;;;;;8.10;2.10;;;;;;;;;;5034735;28;20783;-77
2023/06/05 08:44:11;;;;;;;7.18;2.05;;;;;;;;;;5034700;28;20064;-77
2023/06/05 08:46:40;;;;;;;5.75;2.10;;;;;;;;;;5052968;28;20032;-77
2023/06/05 08:49:10;;;;;;;2.75;1.90;;;;;;;;;;5052611;28;20029;-77
2023/06/05 08:51:37;;;;;;;8.50;2.20;;;;;;;;;;5052940;28;20119;-77
2023/06/05 08:54:04;;;;;;;6.05;2.00;;;;;;;;;;5052726;28;20107;-78
2023/06/05 08:56:31;;;;;;;3.85;2.10;;;;;;;;;;5052686;28;20510;-77
2023/06/05 08:58:57;;;;;;;5.13;2.40;;;;;;;;;;5052607;28;20029;-77
2023/06/05 09:01:22;;;;;;;3.30;2.10;;;;;;;;;;5052669;28;20028;-77
2023/06/05 09:03:48;;;;;;;6.82;2.00;;;;;;;;;;5052634;28;20108;-77
2023/06/05 09:06:13;;;;;;;8.17;2.10;;;;;;;;;;5034991;28;20017;-77
2023/06/05 09:08:38;;;;;;;6.67;2.23;;;;;;;;;;5052624;28;20753;-77
2023/06/05 09:11:23;;;;;;;3.93;2.17;;;;;;;;;;5052725;28;20724;-79
2023/06/05 09:13:49;;;;;;;4.80;2.15;;;;;;;;;;5058868;28;20254;-78
2023/06/05 09:16:14;;;;;;;6.18;2.38;;;;;;;;;;5057117;28;20036;-77
2023/06/05 09:18:52;;;;;;;3.72;2.28;;;;;;;;;;5040676;28;20052;-78
2023/06/05 09:21:17;;;;;;;6.78;2.30;;;;;;;;;;5059110;28;20017;-78
2023/06/05 09:23:43;;;;;;;7.57;2.20;;;;;;;;;;5059095;28;20033;-79
2023/06/05 09:26:10;;;;;;;7.38;2.10;;;;;;;;;;5041323;28;20064;-79
2023/06/05 09:28:35;;;;;;;3.55;2.30;;;;;;;;;;5041655;28;20033;-78
2023/06/05 09:31:02;;;;;;;4.77;2.17;;;;;;;;;;5059225;28;20028;-79
2023/06/05 09:33:35;;;;;;;8.65;2.50;;;;;;;;;;5058856;28;20720;-79
2023/06/05 09:36:10;;;;;;;4.97;2.15;;;;;;;;;;5041638;28;20537;-79
2023/06/05 09:38:37;;;;;;;6.72;2.55;;;;;;;;;;5057524;28;20033;-77
2023/06/05 09:41:05;;;;;;;4.20;2.33;;;;;;;;;;5056694;28;20017;-78
2023/06/05 09:43:30;;;;;;;5.30;2.47;;;;;;;;;;5056636;28;20040;-78
2023/06/05 09:45:56;;;;;;;5.20;2.40;;;;;;;;;;5056347;28;20029;-77
2023/06/05 09:48:22;;;;;;;9.25;3.30;;;;;;;;;;5057235;28;20033;-78
2023/06/05 09:50:47;;;;;;;9.73;3.70;;;;;;;;;;5056525;28;20027;-78
2023/06/05 09:53:16;;;;;;;4.17;2.50;;;;;;;;;;5038830;28;20460;-78
2023/06/05 09:55:41;;;;;;;9.10;2.53;;;;;;;;;;5057787;28;20643;-77
2023/06/05 09:58:13;;;;;;;8.65;2.53;;;;;;;;;;5056875;28;20021;-78
2023/06/05 10:00:41;;;;;;;8.55;2.53;;;;;;;;;;5056399;28;20025;-77
2023/06/05 10:03:12;;;;;;;4.40;2.05;;;;;;;;;;5056329;28;20058;-78
2023/06/05 10:05:38;;;;;;;7.35;2.20;;;;;;;;;;5056594;28;20025;-78
2023/06/05 10:08:05;;;;;;;5.25;2.35;;;;;;;;;;5038677;28;20040;-78
2023/06/05 10:10:31;;;;;;;4.30;2.45;;;;;;;;;;5056718;28;20063;-78
2023/06/05 10:12:57;;;;;;;5.80;2.00;;;;;;;;;;5056673;28;20482;-77
2023/06/05 10:15:24;;;;;;;3.63;2.10;;;;;;;;;;5056721;28;20065;-77
2023/06/05 10:17:50;;;;;;;5.35;2.40;;;;;;;;;;5056078;28;20033;-78
2023/06/05 10:20:15;;;;;;;4.85;2.13;;;;;;;;;;5056199;28;20369;-78
2023/06/05 10:22:42;;;;;;;3.30;1.92;;;;;;;;;;5055915;28;20056;-77
2023/06/05 10:25:11;;;;;;;6.05;2.05;;;;;;;;;;5054906;28;20037;-78
2023/06/05 10:27:52;;;;;;;4.93;1.90;;;;;;;;;;5056023;28;20024;-77
2023/06/05 10:30:36;;;;;;;7.93;2.08;;;;;;;;;;5037953;28;20021;-77
2023/06/05 10:33:31;;;;;;;4.53;2.10;;;;;;;;;;5037863;28;20029;-78
2023/06/05 10:36:09;;;;;;;;;;;;;;;;;;5038364;28;20032;-78
2023/06/05 10:38:35;;;;;;;4.13;2.20;;;;;;;;;;5055567;28;19915;-78
2023/06/05 10:41:02;;;;;;;12.60;2.08;;;;;;;;;;5037928;28;20112;-77
2023/06/05 10:43:29;;;;;;;2.95;1.60;;;;;;;;;;5055465;28;20087;-78
2023/06/05 10:45:56;;;;;;;3.40;2.10;;;;;;;;;;5055634;28;20031;-78
2023/06/05 10:49:05;;;;;;;3.40;1.92;;;;;;;;;;5037806;28;20025;-78
2023/06/05 10:51:37;;;;;;;2.95;1.63;;;;;;;;;;5055858;28;20388;-78
2023/06/05 10:54:04;;;;;;;3.78;2.40;;;;;;;;;;5055647;28;20028;-78
2023/06/05 10:56:51;;;;;;;4.05;2.08;;;;;;;;;;5055849;28;20029;-78
2023/06/05 10:59:20;;;;;;;3.20;2.15;;;;;;;;;;5055994;28;20021;-78
2023/06/05 11:02:08;;;;;;;2.67;1.90;;;;;;;;;;5055792;28;20051;-78
2023/06/05 11:04:42;;;;;;;5.53;2.00;;;;;;;;;;5055770;28;20020;-78
2023/06/05 11:07:21;;;;;;;6.22;1.90;;;;;;;;;;5037960;28;20029;-78
2023/06/05 11:10:05;;;;;;;4.22;2.00;;;;;;;;;;5055745;28;20083;-78
2023/06/05 11:12:40;;;;;;;4.13;1.92;;;;;;;;;;5037368;28;20175;-78
2023/06/05 11:15:10;;;;;;;4.55;1.83;;;;;;;;;;5037673;28;20032;-78
2023/06/05 11:17:36;;;;;;;5.22;1.67;;;;;;;;;;5055638;28;20025;-78
2023/06/05 11:20:12;;;;;;;6.97;1.92;;;;;;;;;;5055547;28;20055;-78
2023/06/05 11:22:52;;;;;;;4.30;2.00;;;;;;;;;;5055575;28;20031;-76
2023/06/05 11:25:18;;;;;;;1.60;1.30;;;;;;;;;;5055794;28;20033;-77
2023/06/05 11:27:45;;;;;;;8.30;2.13;;;;;;;;;;5055685;28;20433;-78
2023/06/05 11:30:15;;;;;;;4.45;1.92;;;;;;;;;;5037904;28;20487;-77
2023/06/05 11:32:41;;;;;;;8.80;2.22;;;;;;;;;;5055378;28;20025;-77
2023/06/05 11:35:10;;;;;;;6.75;2.05;;;;;;;;;;5055560;28;20357;-78
2023/06/05 11:37:37;;;;;;;5.30;2.00;;;;;;;;;;5055549;28;20091;-77
2023/06/05 11:40:09;;;;;;;5.63;1.90;;;;;;;;;;5055621;28;20056;-78
2023/06/05 11:42:38;;;;;;;4.82;1.90;;;;;;;;;;5055762;28;20027;-78
2023/06/05 11:45:14;;;;;;;5.07;2.15;;;;;;;;;;5037398;28;20036;-78
2023/06/05 11:47:40;;;;;;;2.90;1.90;;;;;;;;;;5037065;28;20031;-78
2023/06/05 11:50:08;;;;;;;2.45;1.45;;;;;;;;;;5054680;28;20473;-77
2023/06/05 11:52:33;;;;;;;5.38;2.15;;;;;;;;;;5037134;28;20052;-77
2023/06/05 11:55:15;;;;;;;3.08;2.10;;;;;;;;;;5037042;28;20021;-76
2023/06/05 11:57:41;;;;;;;4.50;1.13;;;;;;;;;;5056838;28;20152;-76
2023/06/05 12:00:10;;;;;;;3.92;1.85;;;;;;;;;;5057019;28;20048;-79
2023/06/05 12:02:36;;;;;;;2.70;1.70;;;;;;;;;;5057466;28;20154;-78
2023/06/05 12:05:01;;;;;;;3.10;2.08;;;;;;;;;;5039391;28;20048;-78
2023/06/05 12:07:31;;;;;;;16.27;2.60;;;;;;;;;;5056381;28;20471;-78
2023/06/05 12:09:58;;;;;;;3.45;2.05;;;;;;;;;;5038932;28;20115;-79
2023/06/05 12:12:23;;;;;;;4.13;2.08;;;;;;;;;;5056393;28;20036;-78
2023/06/05 12:14:49;;;;;;;2.88;2.00;;;;;;;;;;5056701;28;20029;-78
2023/06/05 12:17:14;;;;;;;3.95;2.03;;;;;;;;;;5037780;28;20032;-78
2023/06/05 12:19:40;;;;;;;10.67;2.20;;;;;;;;;;5054801;28;20483;-77
2023/06/05 12:22:06;;;;;;;3.13;2.00;;;;;;;;;;5055032;28;20258;-77
2023/06/05 12:24:32;;;;;;;8.95;2.00;;;;;;;;;;5036644;28;20037;-78
2023/06/05 12:27:03;;;;;;;4.20;2.10;;;;;;;;;;5036977;28;20117;-77
2023/06/05 12:29:31;;;;;;;3.65;2.33;;;;;;;;;;5036477;28;20020;-79
2023/06/05 12:31:58;;;;;;;6.35;2.10;;;;;;;;;;5037037;28;20021;-78
2023/06/05 12:34:44;;;;;;;2.97;2.28;;;;;;;;;;5054555;28;20025;-77
2023/06/05 12:37:10;;;;;;;2.72;1.77;;;;;;;;;;5053627;28;20035;-77
2023/06/05 12:39:36;;;;;;;4.15;2.20;;;;;;;;;;5036964;28;20029;-77
2023/06/05 12:42:01;;;;;;;7.25;2.15;;;;;;;;;;5036736;28;20048;-77
2023/06/05 12:44:26;;;;;;;2.83;1.83;;;;;;;;;;5054493;28;20017;-78
2023/06/05 12:46:51;;;;;;;3.30;2.25;;;;;;;;;;5037796;28;20048;-77
2023/06/05 12:49:17;;;;;;;10.63;2.47;;;;;;;;;;5041170;28;20032;-78
2023/06/05 12:51:43;;;;;;;4.30;1.90;;;;;;;;;;5041164;28;20281;-77
2023/06/05 12:54:08;;;;;;;5.88;2.10;;;;;;;;;;5059081;28;20300;-78
2023/06/05 12:56:35;;;;;;;6.97;2.30;;;;;;;;;;5059142;28;20028;-78
2023/06/05 12:59:01;;;;;;;10.02;2.30;;;;;;;;;;5058353;28;20482;-78
2023/06/05 13:01:26;;;;;;;3.92;2.35;;;;;;;;;;5058986;28;20029;-78
2023/06/05 13:03:52;;;;;;;4.95;2.28;;;;;;;;;;5059522;28;20376;-77
2023/06/05 13:06:18;;;;;;;2.67;1.75;;;;;;;;;;5040594;28;20453;-76
2023/06/05 13:08:43;;;;;;;5.65;2.38;;;;;;;;;;5040556;28;20112;-78
2023/06/05 13:11:08;;;;;;;3.20;1.73;;;;;;;;;;5058876;28;20025;-78
2023/06/05 13:13:35;;;;;;;6.22;2.33;;;;;;;;;;5041343;28;20297;-78
2023/06/05 13:16:01;;;;;;;3.08;1.38;;;;;;;;;;5058934;28;20032;-77
2023/06/05 13:18:27;;;;;;;4.67;2.20;;;;;;;;;;5057856;28;20025;-77
2023/06/05 13:20:52;;;;;;;5.15;2.33;;;;;;;;;;5058408;28;20021;-77
2023/06/05 13:23:18;;;;;;;4.57;2.40;;;;;;;;;;5056336;28;20025;-79
2023/06/05 13:25:43;;;;;;;6.37;2.33;;;;;;;;;;5056882;28;20308;-76
2023/06/05 13:28:08;;;;;;;3.58;2.30;;;;;;;;;;5057192;28;20257;-77
2023/06/05 13:30:33;;;;;;;5.23;2.17;;;;;;;;;;5040261;28;20421;-78
2023/06/05 13:32:59;;;;;;;3.90;2.10;;;;;;;;;;5058293;28;20645;-78
2023/06/05 13:35:25;;;;;;;4.53;2.08;;;;;;;;;;5057956;28;20300;-79
2023/06/05 13:37:50;;;;;;;4.00;2.05;;;;;;;;;;5039781;28;20067;-77
2023/06/05 13:40:16;;;;;;;3.72;1.83;;;;;;;;;;5057391;28;20084;-79
2023/06/05 13:42:41;;;;;;;4.68;2.30;;;;;;;;;;5058336;28;20028;-79
2023/06/05 13:45:07;;;;;;;4.10;2.00;;;;;;;;;;5059670;28;20028;-78
2023/06/05 13:47:32;;;;;;;2.95;2.17;;;;;;;;;;5059487;28;20443;-79
2023/06/05 13:49:57;;;;;;;4.45;2.17;;;;;;;;;;5041918;28;20020;-79
2023/06/05 13:52:23;;;;;;;3.67;2.00;;;;;;;;;;5059060;28;20037;-77
2023/06/05 13:54:48;;;;;;;3.03;2.07;;;;;;;;;;5059453;28;20258;-79
2023/06/05 13:57:13;;;;;;;3.43;2.23;;;;;;;;;;5041124;28;20269;-77
2023/06/05 13:59:39;;;;;;;6.38;2.35;;;;;;;;;;5057799;28;20620;-78
2023/06/05 14:02:04;;;;;;;7.50;2.10;;;;;;;;;;5059074;28;20013;-78
2023/06/05 14:04:30;;;;;;;6.18;2.25;;;;;;;;;;5059272;28;20017;-79
2023/06/05 14:06:55;;;;;;;6.35;2.22;;;;;;;;;;5058872;28;20023;-78
2023/06/05 14:09:20;;;;;;;7.53;2.40;;;;;;;;;;5040903;28;20020;-78
2023/06/05 14:11:46;;;;;;;5.22;2.50;;;;;;;;;;5058764;28;20729;-78
2023/06/05 14:14:11;;;;;;;3.80;2.17;;;;;;;;;;5040828;28;20052;-79
2023/06/05 14:16:37;;;;;;;7.22;2.10;;;;;;;;;;5058698;28;20273;-78
2023/06/05 14:19:02;;;;;;;5.10;2.05;;;;;;;;;;5058623;28;20021;-78
2023/06/05 14:21:28;;;;;;;5.20;2.33;;;;;;;;;;5059093;28;20105;-78
2023/06/05 14:23:53;;;;;;;3.15;2.10;;;;;;;;;;5058432;28;20037;-78
2023/06/05 14:26:21;;;;;;;7.23;2.30;;;;;;;;;;5041163;28;20086;-78
2023/06/05 14:28:46;;;;;;;4.50;2.10;;;;;;;;;;5040561;28;20348;-79
2023/06/05 14:31:12;;;;;;;4.77;2.13;;;;;;;;;;5041527;28;20491;-77
2023/06/05 14:33:38;;;;;;;5.65;2.45;;;;;;;;;;5049460;28;20035;-78
2023/06/05 14:36:04;;;;;;;3.80;2.20;;;;;;;;;;5067576;28;20060;-77
2023/06/05 14:38:29;;;;;;;5.95;2.13;;;;;;;;;;5065206;28;20258;-77
2023/06/05 14:40:57;;;;;;;4.65;2.33;;;;;;;;;;5064835;28;20036;-79
2023/06/05 14:43:22;;;;;;;6.10;2.10;;;;;;;;;;5066077;28;20040;-79